sensor_id;sensor_type;location;lat;lon;timestamp;pressure;altitude;pressure_sealevel;temperature;humidity
63654;BME280;49809;47.418;19.080;2023-01-28T21:13:21;101170.88;;;1.77;93.67
63654;BME280;49809;47.418;19.080;2023-01-28T21:16:31;101170.88;;;1.77;93.67
63654;BME280;49809;47.418;19.080;2023-01-28T21:19:38;101172.13;;;1.19;95.33
63654;BME280;49809;47.418;19.080;2023-01-28T21:22:41;101171.31;;;1.19;95.29
63654;BME280;49809;47.418;19.080;2023-01-28T21:25:45;101177.81;;;1.23;95.09
63654;BME280;49809;47.418;19.080;2023-01-28T21:28:48;101179.28;;;1.25;95.01
63654;BME280;49809;47.418;19.080;2023-01-28T21:31:59;101180.28;;;1.24;94.50
63654;BME280;49809;47.418;19.080;2023-01-28T21:35:02;101184.84;;;1.22;94.67
63654;BME280;49809;47.418;19.080;2023-01-28T21:38:06;101182.72;;;1.18;94.91
63654;BME280;49809;47.418;19.080;2023-01-28T21:41:11;101193.63;;;1.21;94.58
63654;BME280;49809;47.418;19.080;2023-01-28T21:44:16;101185.84;;;1.13;94.92
63654;BME280;49809;47.418;19.080;2023-01-28T21:47:29;101187.81;;;1.11;94.56
63654;BME280;49809;47.418;19.080;2023-01-28T21:50:31;101190.56;;;1.18;94.06
63654;BME280;49809;47.418;19.080;2023-01-28T21:53:59;101189.75;;;1.17;93.87
63654;BME280;49809;47.418;19.080;2023-01-28T21:57:06;101181.78;;;1.03;93.76
63654;BME280;49809;47.418;19.080;2023-01-28T22:00:12;101177.25;;;1.05;93.61
63654;BME280;49809;47.418;19.080;2023-01-28T22:03:20;101189.28;;;1.14;93.45
63654;BME280;49809;47.418;19.080;2023-01-28T22:06:23;101190.09;;;1.14;93.05
63654;BME280;49809;47.418;19.080;2023-01-28T22:09:37;101188.12;;;1.08;92.80
63654;BME280;49809;47.418;19.080;2023-01-28T22:12:40;101196.44;;;1.20;92.75
63654;BME280;49809;47.418;19.080;2023-01-28T22:15:45;101190.56;;;1.18;92.74
63654;BME280;49809;47.418;19.080;2023-01-28T22:18:51;101195.00;;;1.09;92.89
63654;BME280;49809;47.418;19.080;2023-01-28T22:21:55;101193.81;;;1.20;92.57
63654;BME280;49809;47.418;19.080;2023-01-28T22:25:09;101185.50;;;1.16;92.98
63654;BME280;49809;47.418;19.080;2023-01-28T22:28:15;101189.09;;;1.15;93.06
63654;BME280;49809;47.418;19.080;2023-01-28T22:31:19;101193.66;;;1.13;92.99
63654;BME280;49809;47.418;19.080;2023-01-28T22:34:22;101195.63;;;1.19;93.07
63654;BME280;49809;47.418;19.080;2023-01-28T22:37:25;101187.94;;;1.18;93.07
63654;BME280;49809;47.418;19.080;2023-01-28T22:40:32;101195.00;;;1.09;94.09
63654;BME280;49809;47.418;19.080;2023-01-28T22:43:37;101192.03;;;1.12;94.29
63654;BME280;49809;47.418;19.080;2023-01-28T22:46:40;101187.81;;;1.11;94.27
63654;BME280;49809;47.418;19.080;2023-01-28T22:53:50;101205.06;;;1.20;93.95
63654;BME280;49809;47.418;19.080;2023-01-28T22:57:01;101207.66;;;1.20;93.95
63654;BME280;49809;47.418;19.080;2023-01-28T23:00:09;101196.94;;;1.15;94.40
63654;BME280;49809;47.418;19.080;2023-01-28T23:03:13;101198.53;;;1.16;93.82
63654;BME280;49809;47.418;19.080;2023-01-28T23:06:20;101207.00;;;1.18;93.94
63654;BME280;49809;47.418;19.080;2023-01-28T23:09:24;101207.31;;;1.23;93.06
63654;BME280;49809;47.418;19.080;2023-01-28T23:12:30;101209.78;;;1.25;93.33
63654;BME280;49809;47.418;19.080;2023-01-28T23:15:33;101209.47;;;1.20;92.31
63654;BME280;49809;47.418;19.080;2023-01-28T23:18:54;101203.75;;;1.24;92.61
63654;BME280;49809;47.418;19.080;2023-01-28T23:22:28;101206.31;;;1.33;92.01
63654;BME280;49809;47.418;19.080;2023-01-28T23:25:51;101218.53;;;1.32;92.17
63654;BME280;49809;47.418;19.080;2023-01-28T23:28:56;101218.56;;;1.24;91.89
63654;BME280;49809;47.418;19.080;2023-01-28T23:32:06;101209.63;;;1.18;92.82
63654;BME280;49809;47.418;19.080;2023-01-28T23:35:14;101225.59;;;1.23;92.79
63654;BME280;49809;47.418;19.080;2023-01-28T23:38:17;101233.44;;;1.15;92.81
63654;BME280;49809;47.418;19.080;2023-01-28T23:41:23;101232.44;;;1.16;93.17
63654;BME280;49809;47.418;19.080;2023-01-28T23:44:26;101231.66;;;1.16;93.28
63654;BME280;49809;47.418;19.080;2023-01-28T23:47:30;101237.03;;;1.14;93.36
63654;BME280;49809;47.418;19.080;2023-01-28T23:50:35;101231.31;;;1.19;94.04
63654;BME280;49809;47.418;19.080;2023-01-28T23:53:39;101225.12;;;1.20;93.43
63654;BME280;49809;47.418;19.080;2023-01-28T23:56:45;101231.16;;;1.12;93.67
63654;BME280;49809;47.418;19.080;2023-01-28T23:59:51;101224.63;;;1.08;93.73
